Time;durP1;ratioP1;P1;durP2;ratioP2;P2;SDS_P1;SDS_P2;PMS_P1;PMS_P2;Temp;Humidity;BMP_temperature;BMP_pressure;BME280_temperature;BME280_humidity;BME280_pressure;Samples;Min_cycle;Max_cycle;Signal;HPM_P1;HPM_P2
2023/11/14 00:00:27;;;;;;;3.03;0.65;;;13.50;99.90;;;;;;7543220;19;20022;-71
2023/11/14 00:03:00;;;;;;;2.30;1.17;;;13.40;99.90;;;;;;7550815;19;20065;-69
2023/11/14 00:05:34;;;;;;;0.80;0.57;;;13.30;99.90;;;;;;7542905;19;20014;-68
2023/11/14 00:08:06;;;;;;;1.40;0.88;;;13.30;99.90;;;;;;7549392;19;20014;-70
2023/11/14 00:10:39;;;;;;;1.15;0.77;;;13.20;99.90;;;;;;7512813;19;21725;-70
2023/11/14 00:13:12;;;;;;;1.73;0.83;;;13.10;99.90;;;;;;7524790;19;20036;-69
2023/11/14 00:15:44;;;;;;;1.13;1.02;;;13.10;99.90;;;;;;7539961;19;20022;-70
2023/11/14 00:18:17;;;;;;;2.28;0.80;;;13.20;99.90;;;;;;7537796;19;20742;-70
2023/11/14 00:20:49;;;;;;;1.45;0.77;;;13.20;99.90;;;;;;7537120;19;20014;-69
2023/11/14 00:23:22;;;;;;;2.00;0.90;;;13.20;99.90;;;;;;7553417;19;20015;-70
2023/11/14 00:25:54;;;;;;;2.90;0.85;;;13.20;99.90;;;;;;7550275;19;20606;-70
2023/11/14 00:28:27;;;;;;;2.45;1.15;;;13.10;99.90;;;;;;7543283;19;20038;-70
2023/11/14 00:31:01;;;;;;;2.75;1.23;;;13.00;99.90;;;;;;7519182;19;20006;-70
2023/11/14 00:33:34;;;;;;;1.48;0.80;;;13.00;99.90;;;;;;7497161;19;20006;-69
2023/11/14 00:36:06;;;;;;;4.43;1.20;;;13.00;99.90;;;;;;7527415;19;20025;-69
2023/11/14 00:38:39;;;;;;;3.83;0.93;;;12.90;99.90;;;;;;7529437;19;20025;-69
2023/11/14 00:41:12;;;;;;;2.28;1.40;;;12.90;99.90;;;;;;7532386;19;20378;-69
2023/11/14 00:43:45;;;;;;;2.38;1.35;;;12.90;99.90;;;;;;7516923;19;20010;-69
2023/11/14 00:46:17;;;;;;;1.70;1.40;;;12.80;99.90;;;;;;7530085;19;20022;-69
2023/11/14 00:48:49;;;;;;;3.65;1.52;;;12.80;99.90;;;;;;7516005;19;20019;-69
2023/11/14 00:51:22;;;;;;;4.37;1.23;;;12.80;99.90;;;;;;7540403;19;20492;-69
2023/11/14 00:53:56;;;;;;;1.42;1.20;;;12.70;99.90;;;;;;7539049;19;20275;-69
2023/11/14 00:56:28;;;;;;;3.53;1.08;;;12.80;99.90;;;;;;7531310;19;21700;-69
2023/11/14 00:59:02;;;;;;;4.03;1.63;;;12.80;99.90;;;;;;7526520;19;20014;-69
2023/11/14 01:01:35;;;;;;;4.03;1.60;;;12.70;99.90;;;;;;7510913;19;20029;-69
2023/11/14 01:04:10;;;;;;;1.65;1.25;;;12.70;99.90;;;;;;7519114;19;20026;-69
2023/11/14 01:06:42;;;;;;;2.70;1.08;;;12.70;99.90;;;;;;7528124;19;20306;-69
2023/11/14 01:09:15;;;;;;;1.40;0.90;;;12.70;99.90;;;;;;7521122;19;20022;-70
2023/11/14 01:11:48;;;;;;;2.85;1.02;;;12.70;99.90;;;;;;7515372;19;20603;-69
2023/11/14 01:14:21;;;;;;;2.47;1.02;;;12.70;99.90;;;;;;7485245;19;20034;-69
2023/11/14 01:16:54;;;;;;;2.90;1.00;;;12.70;99.90;;;;;;7518009;19;20052;-69
2023/11/14 01:19:26;;;;;;;2.03;1.20;;;12.70;99.90;;;;;;7531234;19;20310;-69
2023/11/14 01:21:59;;;;;;;5.10;1.52;;;12.70;99.90;;;;;;7513091;19;20366;-69
2023/11/14 01:24:32;;;;;;;3.28;1.10;;;12.70;99.90;;;;;;7506695;19;20053;-69
2023/11/14 01:27:04;;;;;;;1.42;0.90;;;12.70;99.90;;;;;;7505691;19;20026;-69
2023/11/14 01:29:36;;;;;;;1.77;1.10;;;12.60;99.90;;;;;;7504097;19;20057;-69
2023/11/14 01:32:09;;;;;;;1.48;0.70;;;12.70;99.90;;;;;;7523458;19;20904;-69
2023/11/14 01:34:41;;;;;;;1.20;0.98;;;12.70;99.90;;;;;;7528636;19;20018;-69
2023/11/14 01:37:14;;;;;;;0.98;0.82;;;12.70;99.90;;;;;;7519358;19;20317;-69
2023/11/14 01:39:47;;;;;;;1.70;1.08;;;12.60;99.90;;;;;;7531013;19;20022;-70
2023/11/14 01:42:20;;;;;;;0.88;0.70;;;12.70;99.90;;;;;;7512438;19;20015;-69
2023/11/14 01:44:52;;;;;;;1.07;0.80;;;12.70;99.90;;;;;;7527471;19;20022;-68
2023/11/14 01:47:25;;;;;;;1.63;0.70;;;12.70;99.90;;;;;;7529646;19;20283;-68
2023/11/14 01:50:00;;;;;;;2.17;0.60;;;12.70;99.90;;;;;;7534830;19;20022;-69
2023/11/14 01:52:33;;;;;;;2.83;0.80;;;12.70;99.90;;;;;;7526716;19;20014;-69
2023/11/14 01:55:07;;;;;;;;;;;12.70;99.90;;;;;;7514639;19;20018;-69
2023/11/14 01:57:39;;;;;;;3.17;0.80;;;12.70;99.90;;;;;;7521540;19;19922;-69
2023/11/14 02:00:12;;;;;;;1.58;0.60;;;12.70;99.90;;;;;;7530563;19;20037;-69
2023/11/14 02:02:46;;;;;;;1.48;0.80;;;12.60;99.90;;;;;;7513583;19;20019;-70
2023/11/14 02:05:19;;;;;;;1.00;0.80;;;12.50;99.90;;;;;;7530351;19;20016;-70
2023/11/14 02:07:52;;;;;;;3.53;1.38;;;12.40;99.90;;;;;;7513153;19;21322;-69
2023/11/14 02:10:27;;;;;;;2.67;0.82;;;12.20;99.90;;;;;;7522572;19;20489;-69
2023/11/14 02:13:01;;;;;;;5.15;1.27;;;12.00;99.90;;;;;;7519969;19;20018;-69
2023/11/14 02:15:33;;;;;;;8.35;1.55;;;12.00;99.90;;;;;;7530742;19;20040;-69
2023/11/14 02:18:05;;;;;;;2.53;1.20;;;11.90;99.90;;;;;;7521724;19;20019;-69
2023/11/14 02:20:39;;;;;;;4.13;1.27;;;11.80;99.90;;;;;;7507412;19;20358;-69
2023/11/14 02:23:16;;;;;;;6.65;1.42;;;11.70;99.90;;;;;;7506446;19;20014;-70
2023/11/14 02:25:49;;;;;;;5.22;1.50;;;11.60;99.90;;;;;;7515361;19;20018;-70
2023/11/14 02:28:21;;;;;;;5.57;1.70;;;11.50;99.90;;;;;;7517674;19;20027;-70
2023/11/14 02:30:54;;;;;;;3.15;1.23;;;11.40;99.90;;;;;;7512449;19;20112;-70
2023/11/14 02:33:26;;;;;;;5.80;1.50;;;11.40;99.90;;;;;;7527193;19;20062;-70
2023/11/14 02:36:00;;;;;;;7.40;2.03;;;11.30;99.90;;;;;;7528453;19;20021;-70
2023/11/14 02:38:35;;;;;;;6.90;1.88;;;11.30;99.90;;;;;;7522222;19;20010;-70
2023/11/14 02:41:07;;;;;;;7.03;2.05;;;11.30;99.90;;;;;;7541916;19;20380;-68
2023/11/14 02:43:41;;;;;;;9.00;1.85;;;11.20;99.90;;;;;;7523085;19;20051;-69
2023/11/14 02:46:14;;;;;;;7.35;2.35;;;11.20;99.90;;;;;;7521174;19;20018;-69
2023/11/14 02:48:46;;;;;;;9.10;2.17;;;11.20;99.90;;;;;;7521803;19;20079;-69
2023/11/14 02:51:19;;;;;;;3.88;1.48;;;11.20;99.90;;;;;;7526863;19;20032;-69
2023/11/14 02:53:53;;;;;;;11.87;1.70;;;11.10;99.90;;;;;;7521128;19;20316;-69
2023/11/14 02:56:25;;;;;;;9.35;2.20;;;11.10;99.90;;;;;;7531120;19;20022;-69
2023/11/14 02:59:00;;;;;;;9.10;2.42;;;11.00;99.90;;;;;;7531504;19;20018;-69
2023/11/14 03:01:32;;;;;;;13.20;2.50;;;11.00;99.90;;;;;;7547499;19;20024;-69
2023/11/14 03:04:05;;;;;;;5.97;2.25;;;11.00;99.90;;;;;;7542436;19;21449;-69
2023/11/14 03:06:39;;;;;;;10.27;2.63;;;11.00;99.90;;;;;;7543756;19;20127;-69
2023/11/14 03:09:13;;;;;;;12.50;2.25;;;10.90;99.90;;;;;;7531261;19;20155;-71
2023/11/14 03:11:45;;;;;;;11.88;2.20;;;10.90;99.90;;;;;;7522197;19;20018;-70
2023/11/14 03:14:18;;;;;;;6.18;2.05;;;10.80;99.90;;;;;;7533104;19;20007;-69
2023/11/14 03:16:51;;;;;;;11.30;1.98;;;10.80;99.90;;;;;;7534736;19;20057;-69
2023/11/14 03:19:24;;;;;;;7.28;2.75;;;10.80;99.90;;;;;;7520210;19;20967;-70
2023/11/14 03:21:56;;;;;;;6.90;2.50;;;10.80;99.90;;;;;;7520079;19;20014;-69
2023/11/14 03:24:28;;;;;;;9.80;2.63;;;10.70;99.90;;;;;;7532854;19;20022;-70
2023/11/14 03:27:02;;;;;;;8.23;2.45;;;10.70;99.90;;;;;;7506061;19;20048;-70
2023/11/14 03:29:35;;;;;;;11.13;2.30;;;10.70;99.90;;;;;;7521513;19;20010;-69
2023/11/14 03:32:07;;;;;;;10.85;2.00;;;10.70;99.90;;;;;;7529775;19;20014;-69
2023/11/14 03:34:40;;;;;;;9.45;2.58;;;10.70;99.90;;;;;;7539445;19;20025;-69
2023/11/14 03:37:13;;;;;;;15.02;2.60;;;10.70;99.90;;;;;;7500082;19;20018;-69
2023/11/14 03:39:45;;;;;;;14.43;2.63;;;10.70;99.90;;;;;;7521476;19;21330;-69
2023/11/14 03:42:18;;;;;;;14.07;2.95;;;10.60;99.90;;;;;;7492942;19;22120;-70
2023/11/14 03:44:51;;;;;;;;;;;10.60;99.90;;;;;;7518666;19;20018;-70
2023/11/14 03:47:23;;;;;;;11.40;3.08;;;10.60;99.90;;;;;;7509933;19;19923;-69
2023/11/14 03:49:57;;;;;;;11.85;3.38;;;10.60;99.90;;;;;;7497621;19;20021;-70
2023/11/14 03:52:29;;;;;;;13.53;2.90;;;10.60;99.90;;;;;;7513972;19;21620;-70
2023/11/14 03:55:03;;;;;;;10.68;3.15;;;10.60;99.90;;;;;;7505012;19;20023;-70
2023/11/14 03:57:35;;;;;;;15.93;3.30;;;10.60;99.90;;;;;;7504538;19;20025;-69
2023/11/14 04:00:11;;;;;;;8.50;2.70;;;10.50;99.90;;;;;;7522177;19;20274;-70
2023/11/14 04:02:45;;;;;;;15.38;3.15;;;10.50;99.90;;;;;;7521724;19;20015;-70
2023/11/14 04:05:17;;;;;;;10.88;3.28;;;10.50;99.90;;;;;;7506031;19;20076;-70
2023/11/14 04:07:50;;;;;;;15.80;3.65;;;10.50;99.90;;;;;;7501031;19;20015;-70
2023/11/14 04:10:22;;;;;;;16.10;3.50;;;10.40;99.90;;;;;;7480998;19;20018;-70
2023/11/14 04:12:56;;;;;;;16.58;3.47;;;10.40;99.90;;;;;;7480089;19;20018;-70
2023/11/14 04:15:28;;;;;;;17.10;3.90;;;10.40;99.90;;;;;;7498492;19;20109;-70
2023/11/14 04:18:00;;;;;;;14.77;3.53;;;10.40;99.90;;;;;;7486840;19;20049;-69
2023/11/14 04:20:33;;;;;;;16.23;4.03;;;10.50;99.90;;;;;;7497695;19;20493;-69
2023/11/14 04:23:05;;;;;;;25.00;4.30;;;10.40;99.90;;;;;;7540146;19;20018;-69
2023/11/14 04:25:37;;;;;;;26.17;4.57;;;10.40;99.90;;;;;;7541178;19;21044;-69
2023/11/14 04:28:10;;;;;;;18.63;4.53;;;10.40;99.90;;;;;;7507307;19;20018;-69
2023/11/14 04:30:42;;;;;;;18.83;4.80;;;10.40;99.90;;;;;;7503959;19;20018;-69
2023/11/14 04:33:15;;;;;;;19.75;4.20;;;10.40;99.90;;;;;;7522439;19;20051;-69
2023/11/14 04:35:47;;;;;;;20.02;4.40;;;10.40;99.90;;;;;;7493523;19;20026;-69
2023/11/14 04:38:20;;;;;;;16.13;4.20;;;10.40;99.90;;;;;;7504759;19;20044;-70
2023/11/14 04:40:53;;;;;;;22.65;4.90;;;10.40;99.90;;;;;;7522693;19;20019;-70
2023/11/14 04:43:25;;;;;;;11.90;4.05;;;10.40;99.90;;;;;;7527453;19;20130;-69
2023/11/14 04:45:58;;;;;;;16.52;4.63;;;10.40;99.90;;;;;;7506421;19;20048;-69
2023/11/14 04:48:30;;;;;;;17.58;4.70;;;10.40;99.90;;;;;;7518649;19;20015;-69
2023/11/14 04:51:03;;;;;;;12.27;3.80;;;10.40;99.90;;;;;;7532728;19;20020;-69
2023/11/14 04:53:36;;;;;;;9.40;3.60;;;10.40;99.90;;;;;;7517506;19;20918;-70
2023/11/14 04:56:08;;;;;;;17.80;4.30;;;10.40;99.90;;;;;;7499296;19;20014;-71
2023/11/14 04:58:41;;;;;;;16.13;3.47;;;10.40;99.90;;;;;;7520652;19;20424;-70
2023/11/14 05:01:15;;;;;;;14.43;4.10;;;10.40;99.90;;;;;;7516751;19;20022;-70
2023/11/14 05:03:48;;;;;;;14.10;3.33;;;10.30;99.90;;;;;;7515033;19;20038;-70
2023/11/14 05:06:20;;;;;;;12.40;4.22;;;10.30;99.90;;;;;;7534356;19;21009;-71
2023/11/14 05:08:52;;;;;;;8.77;3.17;;;10.40;99.90;;;;;;7535696;19;20018;-71
2023/11/14 05:11:25;;;;;;;11.98;3.17;;;10.40;99.90;;;;;;7537679;19;20017;-71
2023/11/14 05:13:57;;;;;;;17.25;3.70;;;10.40;99.90;;;;;;7468562;19;20115;-71
2023/11/14 05:16:29;;;;;;;18.98;3.78;;;10.40;99.90;;;;;;7506195;19;20026;-71
2023/11/14 05:19:03;;;;;;;13.63;6.25;;;10.40;99.90;;;;;;7503735;19;20022;-71
2023/11/14 05:21:39;;;;;;;11.27;3.78;;;10.40;99.90;;;;;;7509641;19;20031;-71
2023/11/14 05:24:12;;;;;;;7.80;3.38;;;10.40;99.90;;;;;;7467372;19;20915;-71
2023/11/14 05:26:44;;;;;;;13.88;3.97;;;10.40;99.90;;;;;;7466403;19;20480;-71
2023/11/14 05:29:16;;;;;;;13.80;3.40;;;10.40;99.90;;;;;;7469212;19;20022;-71
2023/11/14 05:31:49;;;;;;;17.50;3.63;;;10.30;99.90;;;;;;7440475;19;20115;-71
2023/11/14 05:34:22;;;;;;;11.37;3.30;;;10.40;99.90;;;;;;7444942;19;20014;-71
2023/11/14 05:36:54;;;;;;;18.02;3.80;;;10.40;99.90;;;;;;7424823;19;20022;-71
2023/11/14 05:39:27;;;;;;;12.93;3.03;;;10.40;99.90;;;;;;7457953;19;22336;-70
2023/11/14 05:42:00;;;;;;;10.02;3.20;;;10.40;99.90;;;;;;7420974;19;21397;-70
2023/11/14 05:44:32;;;;;;;12.75;3.45;;;10.40;99.90;;;;;;7438285;19;20025;-70
2023/11/14 05:47:05;;;;;;;8.93;3.10;;;10.40;99.90;;;;;;7433406;19;20025;-70
2023/11/14 05:49:38;;;;;;;15.73;4.35;;;10.50;99.90;;;;;;7461013;19;20014;-70
2023/11/14 05:52:10;;;;;;;14.65;3.92;;;10.40;99.90;;;;;;7488705;19;20014;-69
2023/11/14 05:54:43;;;;;;;17.58;4.38;;;10.50;99.90;;;;;;7465929;19;21639;-70
2023/11/14 05:57:16;;;;;;;15.07;3.80;;;10.40;99.90;;;;;;7397290;19;20026;-72
2023/11/14 05:59:51;;;;;;;15.55;4.45;;;10.40;99.90;;;;;;7460021;19;21757;-69
2023/11/14 06:02:23;;;;;;;10.93;4.13;;;10.40;99.90;;;;;;7425340;19;20018;-71
2023/11/14 06:04:56;;;;;;;8.80;3.60;;;10.40;99.90;;;;;;7406665;19;20025;-71
2023/11/14 06:07:29;;;;;;;8.18;2.38;;;10.40;99.90;;;;;;7406185;19;20021;-70
2023/11/14 06:10:03;;;;;;;6.55;2.53;;;10.50;99.90;;;;;;7407823;19;20018;-69
2023/11/14 06:12:39;;;;;;;6.78;3.03;;;10.40;99.90;;;;;;7456803;19;20715;-69
2023/11/14 06:15:13;;;;;;;5.75;2.50;;;10.40;99.90;;;;;;7469078;19;20014;-69
2023/11/14 06:17:45;;;;;;;;;;;10.40;99.90;;;;;;7403335;19;20053;-69
2023/11/14 06:20:17;;;;;;;4.32;2.25;;;10.40;99.90;;;;;;7410656;19;20462;-70
2023/11/14 06:22:50;;;;;;;4.87;2.53;;;10.40;99.90;;;;;;7454360;19;20014;-69
2023/11/14 06:25:23;;;;;;;3.08;1.80;;;10.30;99.90;;;;;;7467488;19;20493;-69
2023/11/14 06:27:55;;;;;;;4.88;1.50;;;10.30;99.90;;;;;;7474324;19;21486;-70
2023/11/14 06:30:28;;;;;;;2.33;1.55;;;10.30;99.90;;;;;;7412154;19;20022;-70
2023/11/14 06:33:01;;;;;;;2.47;1.40;;;10.40;99.90;;;;;;7481948;19;21179;-70
2023/11/14 06:35:33;;;;;;;2.33;1.60;;;10.40;99.90;;;;;;7478476;19;20059;-71
2023/11/14 06:38:06;;;;;;;1.55;1.10;;;10.30;99.90;;;;;;7476123;19;20035;-70
2023/11/14 06:40:39;;;;;;;3.75;1.05;;;10.30;99.90;;;;;;7512282;19;20015;-70
2023/11/14 06:43:11;;;;;;;2.30;1.00;;;10.40;99.90;;;;;;7515178;19;20029;-70
2023/11/14 06:45:44;;;;;;;2.90;1.15;;;10.30;99.90;;;;;;7495931;19;20571;-71
2023/11/14 06:48:17;;;;;;;2.95;1.10;;;10.30;99.90;;;;;;7486937;19;20386;-70
2023/11/14 06:50:49;;;;;;;1.70;1.10;;;10.20;99.90;;;;;;7499433;19;20654;-70
2023/11/14 06:53:22;;;;;;;2.83;1.40;;;10.10;99.90;;;;;;7503354;19;20657;-71
2023/11/14 06:55:55;;;;;;;4.25;1.23;;;10.10;99.90;;;;;;7490059;19;20022;-72
2023/11/14 06:58:28;;;;;;;2.75;1.42;;;10.20;99.90;;;;;;7515067;19;20025;-69
2023/11/14 07:01:00;;;;;;;2.42;1.13;;;10.10;99.90;;;;;;7525799;19;20013;-71
2023/11/14 07:03:33;;;;;;;5.20;1.33;;;10.10;99.90;;;;;;7511964;19;20007;-71
2023/11/14 07:06:06;;;;;;;2.25;1.17;;;10.00;99.90;;;;;;7513062;19;20020;-69
2023/11/14 07:08:39;;;;;;;4.60;1.13;;;10.00;99.90;;;;;;7517632;19;20866;-71
2023/11/14 07:11:12;;;;;;;2.28;1.05;;;9.90;99.90;;;;;;7515845;19;21065;-71
2023/11/14 07:13:46;;;;;;;2.08;1.38;;;9.90;99.90;;;;;;7531802;19;20029;-71
2023/11/14 07:16:19;;;;;;;3.97;1.00;;;9.90;99.90;;;;;;7478265;19;20018;-71
2023/11/14 07:18:51;;;;;;;7.20;1.45;;;9.90;99.90;;;;;;7490011;19;20025;-71
2023/11/14 07:21:24;;;;;;;3.00;1.27;;;10.00;99.90;;;;;;7493094;19;20010;-71
2023/11/14 07:23:56;;;;;;;4.13;1.55;;;10.00;99.90;;;;;;7492458;19;20083;-71
2023/11/14 07:26:29;;;;;;;3.95;1.20;;;10.00;99.90;;;;;;7503544;19;20019;-71
2023/11/14 07:29:04;;;;;;;4.20;1.27;;;10.00;99.90;;;;;;7498026;19;20022;-71
2023/11/14 07:31:36;;;;;;;8.32;1.35;;;9.90;99.90;;;;;;7491191;19;20021;-71
2023/11/14 07:34:09;;;;;;;9.00;2.15;;;10.00;99.90;;;;;;7503168;19;20392;-71
2023/11/14 07:36:42;;;;;;;2.07;1.27;;;10.00;99.90;;;;;;7492873;19;20510;-71
2023/11/14 07:39:16;;;;;;;3.17;1.42;;;10.00;99.90;;;;;;7498537;19;20018;-71
2023/11/14 07:41:48;;;;;;;3.72;1.10;;;10.00;99.90;;;;;;7521041;19;20010;-71
2023/11/14 07:44:21;;;;;;;4.10;1.23;;;10.00;99.90;;;;;;7506816;19;20725;-71
2023/11/14 07:46:53;;;;;;;1.90;1.02;;;9.90;99.90;;;;;;7499934;19;20085;-71
2023/11/14 07:49:39;;;;;;;1.95;1.10;;;10.00;99.90;;;;;;7465865;19;20022;-71
2023/11/14 07:52:12;;;;;;;13.85;1.75;;;9.90;99.90;;;;;;7517167;19;20015;-71
2023/11/14 07:54:45;;;;;;;5.00;1.00;;;10.00;99.90;;;;;;7517754;19;20021;-71
2023/11/14 07:57:17;;;;;;;2.08;0.70;;;10.10;99.90;;;;;;7499070;19;20018;-70
2023/11/14 07:59:50;;;;;;;2.17;1.10;;;10.10;99.90;;;;;;7502747;19;21125;-71
2023/11/14 08:02:22;;;;;;;5.88;1.10;;;10.10;99.90;;;;;;7506750;19;20022;-71
2023/11/14 08:04:54;;;;;;;2.97;0.80;;;10.10;99.90;;;;;;7503833;19;20041;-71
2023/11/14 08:07:27;;;;;;;2.13;1.15;;;10.00;99.90;;;;;;7509752;19;22858;-71
2023/11/14 08:09:59;;;;;;;3.15;1.20;;;10.10;99.90;;;;;;7522507;19;20015;-70
2023/11/14 08:12:32;;;;;;;1.95;0.98;;;10.20;99.90;;;;;;7501154;19;20022;-70
2023/11/14 08:15:06;;;;;;;0.95;0.70;;;10.20;99.90;;;;;;7478695;19;20021;-71
2023/11/14 08:17:38;;;;;;;;;;;10.20;99.90;;;;;;7490566;19;21074;-68
2023/11/14 08:20:12;;;;;;;1.20;0.75;;;10.30;99.90;;;;;;7483665;19;19922;-70
2023/11/14 08:22:44;;;;;;;1.20;0.90;;;10.10;99.90;;;;;;7503310;19;21828;-70
2023/11/14 08:25:20;;;;;;;2.67;1.40;;;10.10;99.90;;;;;;7458169;19;20055;-70
2023/11/14 08:27:52;;;;;;;3.35;0.95;;;10.10;99.90;;;;;;7527664;19;21858;-70
2023/11/14 08:30:27;;;;;;;2.85;1.00;;;10.10;99.90;;;;;;7479162;19;20007;-70
2023/11/14 08:33:01;;;;;;;3.78;0.90;;;10.10;99.90;;;;;;7513001;19;20111;-70
2023/11/14 08:35:33;;;;;;;3.00;0.95;;;10.30;99.90;;;;;;7484099;19;20010;-69
2023/11/14 08:38:06;;;;;;;2.53;0.70;;;10.40;99.90;;;;;;7511340;19;20026;-71
2023/11/14 08:40:50;;;;;;;2.95;0.90;;;10.40;99.90;;;;;;7497454;19;20018;-69
2023/11/14 08:43:22;;;;;;;3.85;1.17;;;10.40;99.90;;;;;;7494664;19;21350;-71
2023/11/14 08:45:55;;;;;;;2.17;0.90;;;10.50;99.90;;;;;;7508230;19;20026;-71
2023/11/14 08:48:27;;;;;;;2.17;1.20;;;10.50;99.90;;;;;;7503349;19;20014;-68
2023/11/14 08:51:00;;;;;;;1.17;0.75;;;10.50;99.90;;;;;;7491480;19;20609;-72
2023/11/14 08:53:33;;;;;;;4.53;0.90;;;10.60;99.90;;;;;;7491329;19;20603;-71
2023/11/14 08:56:06;;;;;;;2.80;0.75;;;10.70;99.90;;;;;;7489894;19;20021;-71
2023/11/14 08:58:38;;;;;;;0.95;0.63;;;10.70;99.90;;;;;;7482920;19;20019;-71
2023/11/14 09:01:14;;;;;;;1.02;0.63;;;10.80;99.90;;;;;;7477266;19;21941;-71
2023/11/14 09:03:47;;;;;;;3.20;0.80;;;10.80;99.90;;;;;;7485592;19;20023;-71
2023/11/14 09:06:20;;;;;;;2.30;1.48;;;10.80;99.90;;;;;;7503015;19;20014;-71
2023/11/14 09:08:52;;;;;;;4.63;1.00;;;10.90;99.90;;;;;;7507394;19;20010;-69
2023/11/14 09:11:25;;;;;;;1.33;0.40;;;10.90;99.90;;;;;;7482757;19;22626;-69
2023/11/14 09:13:58;;;;;;;0.77;0.52;;;11.00;99.90;;;;;;7462544;19;20018;-72
2023/11/14 09:16:31;;;;;;;1.38;0.50;;;11.10;99.90;;;;;;7513721;19;22183;-69
2023/11/14 09:19:04;;;;;;;0.45;0.32;;;11.10;99.90;;;;;;7532102;19;20119;-72
2023/11/14 09:21:37;;;;;;;;;;;11.10;99.90;;;;;;7505232;19;20865;-69
2023/11/14 09:24:09;;;;;;;1.45;0.35;;;11.00;99.90;;;;;;7532329;19;19919;-71
2023/11/14 09:26:43;;;;;;;0.68;0.47;;;11.10;99.90;;;;;;7513170;19;20018;-72
2023/11/14 09:29:15;;;;;;;0.75;0.40;;;11.00;99.90;;;;;;7522963;19;20014;-72
2023/11/14 09:31:48;;;;;;;1.60;0.68;;;11.10;99.90;;;;;;7483362;19;20029;-71
2023/11/14 09:34:21;;;;;;;1.67;0.47;;;11.10;99.90;;;;;;7486305;19;20019;-71
2023/11/14 09:36:53;;;;;;;0.73;0.40;;;11.10;99.90;;;;;;7493292;19;20015;-70
2023/11/14 09:39:27;;;;;;;1.45;0.82;;;11.20;99.90;;;;;;7508569;19;20018;-70
2023/11/14 09:41:59;;;;;;;1.83;0.50;;;11.10;99.90;;;;;;7497011;19;20029;-71
2023/11/14 09:44:32;;;;;;;0.90;0.60;;;11.10;99.90;;;;;;7442821;19;20015;-71
2023/11/14 09:47:08;;;;;;;0.97;0.70;;;11.10;99.90;;;;;;7454998;19;20025;-70
2023/11/14 09:49:42;;;;;;;0.98;0.40;;;11.00;99.90;;;;;;7517392;19;21342;-70
2023/11/14 09:52:15;;;;;;;0.60;0.50;;;10.90;99.90;;;;;;7492305;19;20011;-70
2023/11/14 09:54:47;;;;;;;1.20;0.75;;;10.90;99.90;;;;;;7500124;19;20025;-70
2023/11/14 09:57:21;;;;;;;2.08;0.50;;;10.90;99.90;;;;;;7483560;19;21730;-69
2023/11/14 09:59:54;;;;;;;0.70;0.50;;;10.90;99.90;;;;;;7499761;19;20026;-69
2023/11/14 10:02:27;;;;;;;0.55;0.40;;;10.90;99.90;;;;;;7493330;19;21317;-70
2023/11/14 10:05:00;;;;;;;2.27;0.60;;;11.00;99.90;;;;;;7483923;19;20296;-70
2023/11/14 10:07:46;;;;;;;1.17;0.52;;;11.00;99.90;;;;;;7504178;19;20267;-70
2023/11/14 10:10:18;;;;;;;1.30;0.50;;;10.80;99.90;;;;;;7492102;19;20011;-70
2023/11/14 10:12:55;;;;;;;2.92;0.70;;;10.70;99.90;;;;;;7519408;19;20532;-70
2023/11/14 10:15:28;;;;;;;1.85;0.60;;;10.90;99.90;;;;;;7500120;19;20134;-69
2023/11/14 10:18:02;;;;;;;0.95;0.60;;;10.90;99.90;;;;;;7471460;19;20018;-72
2023/11/14 10:20:39;;;;;;;3.50;0.93;;;10.80;99.90;;;;;;7483648;19;20014;-71
2023/11/14 10:23:14;;;;;;;1.05;0.43;;;10.80;99.90;;;;;;7512943;19;20100;-72
2023/11/14 10:26:06;;;;;;;0.60;0.43;;;10.90;99.90;;;;;;7486750;19;20029;-71
2023/11/14 10:28:54;;;;;;;1.38;0.65;;;11.00;99.90;;;;;;7484919;19;20045;-71
2023/11/14 10:31:38;;;;;;;0.80;0.50;;;10.90;99.90;;;;;;7500767;19;20056;-71
2023/11/14 10:34:33;;;;;;;1.58;0.80;;;11.00;99.90;;;;;;7519199;19;20014;-69
2023/11/14 10:37:05;;;;;;;1.25;0.40;;;11.00;99.90;;;;;;7505867;19;20019;-70
2023/11/14 10:39:53;;;;;;;1.75;0.50;;;11.10;99.90;;;;;;7513655;19;20026;-70
2023/11/14 10:42:26;;;;;;;2.47;0.65;;;11.20;99.90;;;;;;7522909;19;20006;-69
2023/11/14 10:45:09;;;;;;;4.75;0.68;;;11.10;99.90;;;;;;7516355;19;20124;-70
2023/11/14 10:47:43;;;;;;;2.03;0.73;;;11.20;99.90;;;;;;7534535;19;20085;-70
2023/11/14 10:50:31;;;;;;;0.70;0.50;;;11.20;99.90;;;;;;7499115;19;20018;-70
2023/11/14 10:53:04;;;;;;;3.58;0.60;;;11.30;99.90;;;;;;7496341;19;20006;-70
2023/11/14 10:55:37;;;;;;;1.75;0.50;;;11.30;99.90;;;;;;7494072;19;20018;-70
2023/11/14 10:58:11;;;;;;;0.35;0.35;;;11.30;99.90;;;;;;7494908;19;20142;-70
2023/11/14 11:00:44;;;;;;;1.98;0.50;;;11.40;99.90;;;;;;7501826;19;20014;-70
